DIJEN EDDH-EDDH
Flight info
| Callsign | DIJEN |
|---|---|
| Flight time | 1h 5m |
| Altitude | |
| Route | EDDH/23 |
| Aircraft | C414 |
Departure
| Time | 2026-04-26 17:51 |
|---|---|
| Airport | Hamburg Helmut Schmidt Airport (EDDH) |
Arrival
| Time | 2026-04-26 18:56 |
|---|---|
| Airport | Hamburg Helmut Schmidt Airport (EDDH) |
| Time | Latitude | Longitude | Altitude | Speed | Heading |
|---|---|---|---|---|---|
| 2026-04-26 17:49 | 53.63094 | 9.99065 | 41 ft | 19 kts | 266° |
| 2026-04-26 17:50 | 53.63041 | 9.98829 | 40 ft | 30 kts | 231° |
| 2026-04-26 17:50 | 53.62762 | 9.98258 | 38 ft | 91 kts | 231° |
| 2026-04-26 17:50 | 53.62308 | 9.97343 | 249 ft | 108 kts | 236° |
| 2026-04-26 17:50 | 53.61737 | 9.96394 | 580 ft | 121 kts | 210° |
| 2026-04-26 17:51 | 53.60862 | 9.96383 | 849 ft | 141 kts | 163° |
| 2026-04-26 17:51 | 53.60172 | 9.97551 | 1057 ft | 151 kts | 104° |
| 2026-04-26 17:51 | 53.59884 | 9.99223 | 1157 ft | 148 kts | 103° |
| 2026-04-26 17:51 | 53.59580 | 10.00890 | 1129 ft | 148 kts | 106° |
| 2026-04-26 17:52 | 53.59172 | 10.02498 | 1099 ft | 148 kts | 121° |
| 2026-04-26 17:52 | 53.58532 | 10.03906 | 933 ft | 157 kts | 126° |
| 2026-04-26 17:52 | 53.57912 | 10.05378 | 997 ft | 147 kts | 116° |
| 2026-04-26 17:52 | 53.57849 | 10.06981 | 1014 ft | 138 kts | 57° |
| 2026-04-26 17:53 | 53.58601 | 10.07618 | 968 ft | 128 kts | 342° |
| 2026-04-26 17:53 | 53.59076 | 10.06413 | 850 ft | 134 kts | 278° |
| 2026-04-26 17:53 | 53.59081 | 10.04861 | 850 ft | 135 kts | 265° |
| 2026-04-26 17:54 | 53.57805 | 10.02507 | 958 ft | 136 kts | 244° |
| 2026-04-26 17:54 | 53.57533 | 10.00998 | 1068 ft | 132 kts | 247° |
| 2026-04-26 17:54 | 53.56869 | 9.99845 | 1046 ft | 147 kts | 220° |
| 2026-04-26 17:54 | 53.56033 | 9.98850 | 1111 ft | 150 kts | 218° |
| 2026-04-26 17:55 | 53.55026 | 9.98416 | 1160 ft | 154 kts | 172° |
| 2026-04-26 17:55 | 53.54118 | 9.99349 | 1143 ft | 159 kts | 123° |
| 2026-04-26 17:55 | 53.53884 | 10.01056 | 1278 ft | 146 kts | 75° |
| 2026-04-26 17:55 | 53.54420 | 10.02374 | 1369 ft | 136 kts | 27° |
| 2026-04-26 17:56 | 53.55322 | 10.02569 | 1394 ft | 136 kts | 342° |
| 2026-04-26 17:56 | 53.56026 | 9.99881 | 1408 ft | 149 kts | 252° |
| 2026-04-26 17:57 | 53.54204 | 9.98300 | 1408 ft | 163 kts | 173° |
| 2026-04-26 17:57 | 53.53217 | 9.99182 | 1401 ft | 163 kts | 129° |
| 2026-04-26 17:57 | 53.52814 | 10.00893 | 1400 ft | 158 kts | 86° |
| 2026-04-26 17:57 | 53.53117 | 10.02598 | 1396 ft | 151 kts | 52° |
| 2026-04-26 17:58 | 53.55632 | 10.02836 | 1397 ft | 145 kts | 304° |
| 2026-04-26 17:59 | 53.55361 | 9.99597 | 1397 ft | 159 kts | 229° |
| 2026-04-26 17:59 | 53.54727 | 9.98176 | 1468 ft | 148 kts | 256° |
| 2026-04-26 17:59 | 53.54672 | 9.96463 | 1402 ft | 149 kts | 281° |
| 2026-04-26 17:59 | 53.54943 | 9.94820 | 1409 ft | 145 kts | 296° |
| 2026-04-26 18:00 | 53.55522 | 9.93457 | 1401 ft | 143 kts | 316° |
| 2026-04-26 18:00 | 53.56395 | 9.92715 | 1320 ft | 146 kts | 353° |
| 2026-04-26 18:00 | 53.57388 | 9.93109 | 1217 ft | 153 kts | 29° |
| 2026-04-26 18:00 | 53.58051 | 9.94518 | 1121 ft | 160 kts | 66° |
| 2026-04-26 18:01 | 53.58167 | 9.95760 | 1033 ft | 166 kts | 88° |
| 2026-04-26 18:01 | 53.57770 | 9.97553 | 1065 ft | 164 kts | 127° |
| 2026-04-26 18:01 | 53.56855 | 9.98605 | 1167 ft | 159 kts | 165° |
| 2026-04-26 18:01 | 53.55784 | 9.98541 | 1276 ft | 154 kts | 204° |
| 2026-04-26 18:02 | 53.54992 | 9.97447 | 1336 ft | 146 kts | 244° |
| 2026-04-26 18:02 | 53.54794 | 9.96400 | 1394 ft | 141 kts | 270° |
| 2026-04-26 18:02 | 53.55281 | 9.94465 | 1406 ft | 139 kts | 322° |
| 2026-04-26 18:02 | 53.56183 | 9.93956 | 1410 ft | 141 kts | 1° |
| 2026-04-26 18:03 | 53.57093 | 9.94569 | 1410 ft | 147 kts | 38° |
| 2026-04-26 18:03 | 53.57599 | 9.96085 | 1409 ft | 154 kts | 76° |
| 2026-04-26 18:03 | 53.57453 | 9.97893 | 1408 ft | 163 kts | 113° |
| 2026-04-26 18:03 | 53.56683 | 9.99280 | 1411 ft | 166 kts | 151° |
| 2026-04-26 18:04 | 53.55574 | 9.99681 | 1410 ft | 165 kts | 188° |
| 2026-04-26 18:04 | 53.54548 | 9.98961 | 1410 ft | 158 kts | 225° |
| 2026-04-26 18:04 | 53.54002 | 9.97439 | 1408 ft | 152 kts | 262° |
| 2026-04-26 18:05 | 53.54829 | 9.94623 | 1409 ft | 142 kts | 338° |
| 2026-04-26 18:05 | 53.55798 | 9.94539 | 1409 ft | 144 kts | 16° |
| 2026-04-26 18:05 | 53.56595 | 9.95556 | 1409 ft | 151 kts | 52° |
| 2026-04-26 18:05 | 53.56866 | 9.97267 | 1412 ft | 156 kts | 90° |
| 2026-04-26 18:06 | 53.56461 | 9.98984 | 1408 ft | 165 kts | 128° |
| 2026-04-26 18:06 | 53.55508 | 10.00046 | 1409 ft | 168 kts | 165° |
| 2026-04-26 18:06 | 53.54360 | 10.00024 | 1407 ft | 165 kts | 201° |
| 2026-04-26 18:06 | 53.53471 | 9.98952 | 1407 ft | 156 kts | 239° |
| 2026-04-26 18:07 | 53.53156 | 9.97282 | 1409 ft | 149 kts | 275° |
| 2026-04-26 18:07 | 53.53343 | 9.95592 | 1421 ft | 146 kts | 287° |
| 2026-04-26 18:07 | 53.53612 | 9.93924 | 1407 ft | 146 kts | 288° |
| 2026-04-26 18:07 | 53.53776 | 9.92828 | 1409 ft | 146 kts | 287° |
| 2026-04-26 18:08 | 53.54100 | 9.90617 | 1407 ft | 145 kts | 287° |
| 2026-04-26 18:08 | 53.54335 | 9.88987 | 1409 ft | 146 kts | 287° |
| 2026-04-26 18:08 | 53.54574 | 9.87316 | 1404 ft | 144 kts | 287° |
| 2026-04-26 18:08 | 53.54795 | 9.85691 | 1407 ft | 143 kts | 287° |
| 2026-04-26 18:09 | 53.55034 | 9.84093 | 1399 ft | 142 kts | 288° |
| 2026-04-26 18:09 | 53.55280 | 9.82468 | 1403 ft | 142 kts | 287° |
| 2026-04-26 18:09 | 53.55522 | 9.80882 | 1398 ft | 142 kts | 288° |
| 2026-04-26 18:09 | 53.55771 | 9.79268 | 1397 ft | 140 kts | 288° |
| 2026-04-26 18:10 | 53.56008 | 9.77689 | 1398 ft | 142 kts | 288° |
| 2026-04-26 18:10 | 53.56249 | 9.76049 | 1397 ft | 142 kts | 288° |
| 2026-04-26 18:10 | 53.56491 | 9.74462 | 1391 ft | 141 kts | 288° |
| 2026-04-26 18:10 | 53.56735 | 9.72852 | 1396 ft | 141 kts | 287° |
| 2026-04-26 18:11 | 53.56967 | 9.71249 | 1400 ft | 142 kts | 287° |
| 2026-04-26 18:11 | 53.57201 | 9.69653 | 1403 ft | 143 kts | 288° |
| 2026-04-26 18:11 | 53.57441 | 9.68009 | 1404 ft | 143 kts | 288° |
| 2026-04-26 18:11 | 53.57681 | 9.66378 | 1409 ft | 145 kts | 288° |
| 2026-04-26 18:12 | 53.57928 | 9.64722 | 1407 ft | 146 kts | 288° |
| 2026-04-26 18:12 | 53.58422 | 9.63309 | 1406 ft | 141 kts | 315° |
| 2026-04-26 18:12 | 53.59113 | 9.62141 | 1406 ft | 141 kts | 316° |
| 2026-04-26 18:12 | 53.59803 | 9.60973 | 1408 ft | 141 kts | 316° |
| 2026-04-26 18:13 | 53.60490 | 9.59801 | 1408 ft | 141 kts | 316° |
| 2026-04-26 18:13 | 53.61184 | 9.58634 | 1408 ft | 142 kts | 316° |
| 2026-04-26 18:13 | 53.61895 | 9.57472 | 1411 ft | 143 kts | 316° |
| 2026-04-26 18:13 | 53.62376 | 9.56702 | 1412 ft | 145 kts | 316° |
| 2026-04-26 18:14 | 53.63358 | 9.55137 | 1412 ft | 146 kts | 316° |
| 2026-04-26 18:14 | 53.64087 | 9.53961 | 1411 ft | 144 kts | 316° |
| 2026-04-26 18:14 | 53.64815 | 9.52796 | 1408 ft | 144 kts | 316° |
| 2026-04-26 18:14 | 53.65543 | 9.51643 | 1409 ft | 143 kts | 316° |
| 2026-04-26 18:15 | 53.66267 | 9.50497 | 1414 ft | 142 kts | 316° |
| 2026-04-26 18:15 | 53.66985 | 9.49348 | 1415 ft | 143 kts | 316° |
| 2026-04-26 18:15 | 53.67695 | 9.48203 | 1416 ft | 143 kts | 316° |
| 2026-04-26 18:15 | 53.68407 | 9.47036 | 1414 ft | 143 kts | 316° |
| 2026-04-26 18:16 | 53.69118 | 9.45873 | 1413 ft | 142 kts | 316° |
| 2026-04-26 18:16 | 53.70535 | 9.43575 | 1409 ft | 141 kts | 316° |
| 2026-04-26 18:16 | 53.71242 | 9.42429 | 1407 ft | 141 kts | 316° |
| 2026-04-26 18:17 | 53.71958 | 9.41264 | 1404 ft | 141 kts | 316° |
| 2026-04-26 18:17 | 53.72667 | 9.40113 | 1408 ft | 141 kts | 316° |
| 2026-04-26 18:17 | 53.73377 | 9.39006 | 1410 ft | 141 kts | 317° |
| 2026-04-26 18:17 | 53.74107 | 9.37888 | 1411 ft | 142 kts | 316° |
| 2026-04-26 18:18 | 53.74847 | 9.36754 | 1413 ft | 142 kts | 316° |
| 2026-04-26 18:18 | 53.75579 | 9.35636 | 1416 ft | 141 kts | 316° |
| 2026-04-26 18:18 | 53.76307 | 9.34528 | 1417 ft | 141 kts | 316° |
| 2026-04-26 18:18 | 53.77038 | 9.33414 | 1416 ft | 142 kts | 316° |
| 2026-04-26 18:19 | 53.77760 | 9.32303 | 1418 ft | 143 kts | 316° |
| 2026-04-26 18:19 | 53.78494 | 9.31171 | 1422 ft | 143 kts | 316° |
| 2026-04-26 18:19 | 53.79229 | 9.30042 | 1422 ft | 143 kts | 316° |
| 2026-04-26 18:19 | 53.79967 | 9.28899 | 1422 ft | 144 kts | 316° |
| 2026-04-26 18:20 | 53.80716 | 9.27731 | 1421 ft | 144 kts | 316° |
| 2026-04-26 18:20 | 53.81443 | 9.26605 | 1419 ft | 144 kts | 316° |
| 2026-04-26 18:20 | 53.82190 | 9.25452 | 1421 ft | 143 kts | 316° |
| 2026-04-26 18:20 | 53.82678 | 9.24707 | 1420 ft | 142 kts | 316° |
| 2026-04-26 18:21 | 53.83654 | 9.23194 | 1422 ft | 142 kts | 316° |
| 2026-04-26 18:21 | 53.84381 | 9.22070 | 1423 ft | 141 kts | 316° |
| 2026-04-26 18:21 | 53.85107 | 9.20942 | 1423 ft | 142 kts | 316° |
| 2026-04-26 18:21 | 53.85819 | 9.19827 | 1423 ft | 141 kts | 316° |
| 2026-04-26 18:22 | 53.86551 | 9.18677 | 1419 ft | 142 kts | 316° |
| 2026-04-26 18:22 | 53.87282 | 9.17519 | 1512 ft | 147 kts | 316° |
| 2026-04-26 18:22 | 53.88037 | 9.16335 | 1802 ft | 149 kts | 316° |
| 2026-04-26 18:22 | 53.88812 | 9.15138 | 2083 ft | 152 kts | 316° |
| 2026-04-26 18:23 | 53.89605 | 9.13929 | 2359 ft | 155 kts | 316° |
| 2026-04-26 18:23 | 53.90410 | 9.12706 | 2642 ft | 156 kts | 316° |
| 2026-04-26 18:23 | 53.91226 | 9.11486 | 2940 ft | 157 kts | 316° |
| 2026-04-26 18:23 | 53.92071 | 9.10244 | 3235 ft | 157 kts | 316° |
| 2026-04-26 18:24 | 53.92877 | 9.09058 | 3513 ft | 157 kts | 316° |
| 2026-04-26 18:24 | 53.93704 | 9.07835 | 3790 ft | 157 kts | 316° |
| 2026-04-26 18:24 | 53.94526 | 9.06612 | 4073 ft | 158 kts | 316° |
| 2026-04-26 18:24 | 53.95346 | 9.05375 | 4358 ft | 158 kts | 316° |
| 2026-04-26 18:25 | 53.96165 | 9.04133 | 4643 ft | 158 kts | 316° |
| 2026-04-26 18:25 | 53.96983 | 9.02883 | 4932 ft | 158 kts | 316° |
| 2026-04-26 18:25 | 53.97799 | 9.01632 | 5218 ft | 158 kts | 316° |
| 2026-04-26 18:25 | 53.98604 | 9.00393 | 5494 ft | 158 kts | 316° |
| 2026-04-26 18:26 | 53.99425 | 8.99152 | 5775 ft | 158 kts | 317° |
| 2026-04-26 18:26 | 54.00243 | 8.97907 | 6058 ft | 158 kts | 317° |
| 2026-04-26 18:26 | 54.01054 | 8.96654 | 6341 ft | 157 kts | 317° |
| 2026-04-26 18:26 | 54.01852 | 8.95389 | 6635 ft | 156 kts | 316° |
| 2026-04-26 18:27 | 54.02644 | 8.94123 | 6901 ft | 156 kts | 316° |
| 2026-04-26 18:27 | 54.03441 | 8.92840 | 7171 ft | 156 kts | 316° |
| 2026-04-26 18:27 | 54.04224 | 8.91571 | 7440 ft | 155 kts | 316° |
| 2026-04-26 18:27 | 54.04993 | 8.90317 | 7708 ft | 155 kts | 316° |
| 2026-04-26 18:28 | 54.05780 | 8.89026 | 7984 ft | 155 kts | 316° |
| 2026-04-26 18:28 | 54.06540 | 8.87767 | 8259 ft | 154 kts | 316° |
| 2026-04-26 18:28 | 54.07317 | 8.86472 | 8539 ft | 154 kts | 316° |
| 2026-04-26 18:28 | 54.08079 | 8.85188 | 8818 ft | 154 kts | 316° |
| 2026-04-26 18:29 | 54.08837 | 8.83901 | 9093 ft | 154 kts | 316° |
| 2026-04-26 18:29 | 54.09590 | 8.82611 | 9382 ft | 154 kts | 316° |
| 2026-04-26 18:29 | 54.10333 | 8.81332 | 9658 ft | 153 kts | 316° |
| 2026-04-26 18:29 | 54.11089 | 8.80022 | 9811 ft | 161 kts | 316° |
| 2026-04-26 18:30 | 54.11900 | 8.78617 | 9819 ft | 171 kts | 316° |
| 2026-04-26 18:30 | 54.12752 | 8.77144 | 9826 ft | 177 kts | 316° |
| 2026-04-26 18:30 | 54.13631 | 8.75628 | 9825 ft | 182 kts | 316° |
| 2026-04-26 18:30 | 54.14503 | 8.74046 | 9826 ft | 184 kts | 312° |
| 2026-04-26 18:31 | 54.15146 | 8.72150 | 9844 ft | 188 kts | 293° |
| 2026-04-26 18:31 | 54.15306 | 8.69907 | 9816 ft | 197 kts | 270° |
| 2026-04-26 18:31 | 54.14877 | 8.67650 | 9811 ft | 206 kts | 246° |
| 2026-04-26 18:31 | 54.13905 | 8.65799 | 9805 ft | 216 kts | 222° |
| 2026-04-26 18:32 | 54.12531 | 8.64696 | 9806 ft | 224 kts | 198° |
| 2026-04-26 18:32 | 54.10965 | 8.64555 | 9803 ft | 229 kts | 175° |
| 2026-04-26 18:32 | 54.09456 | 8.65427 | 9805 ft | 231 kts | 151° |
| 2026-04-26 18:32 | 54.08240 | 8.67186 | 9808 ft | 230 kts | 127° |
| 2026-04-26 18:33 | 54.07501 | 8.69553 | 9804 ft | 225 kts | 103° |
| 2026-04-26 18:33 | 54.07281 | 8.72149 | 9816 ft | 221 kts | 95° |
| 2026-04-26 18:33 | 54.06701 | 8.74598 | 9820 ft | 228 kts | 123° |
| 2026-04-26 18:33 | 54.05534 | 8.76420 | 9818 ft | 230 kts | 150° |
| 2026-04-26 18:34 | 54.04022 | 8.77234 | 9822 ft | 228 kts | 178° |
| 2026-04-26 18:34 | 54.02482 | 8.76884 | 9826 ft | 221 kts | 206° |
| 2026-04-26 18:34 | 54.01235 | 8.75482 | 9826 ft | 212 kts | 233° |
| 2026-04-26 18:34 | 54.00536 | 8.73379 | 9826 ft | 201 kts | 261° |
| 2026-04-26 18:35 | 54.00510 | 8.71082 | 9827 ft | 192 kts | 288° |
| 2026-04-26 18:35 | 54.01135 | 8.69141 | 9827 ft | 187 kts | 316° |
| 2026-04-26 18:35 | 54.02240 | 8.68026 | 9825 ft | 188 kts | 343° |
| 2026-04-26 18:35 | 54.03550 | 8.68021 | 9822 ft | 194 kts | 11° |
| 2026-04-26 18:36 | 54.04736 | 8.69162 | 9823 ft | 203 kts | 38° |
| 2026-04-26 18:36 | 54.05502 | 8.71221 | 9822 ft | 213 kts | 65° |
| 2026-04-26 18:36 | 54.05649 | 8.73769 | 9820 ft | 223 kts | 93° |
| 2026-04-26 18:36 | 54.05113 | 8.76261 | 9819 ft | 229 kts | 120° |
| 2026-04-26 18:37 | 54.04062 | 8.78305 | 9822 ft | 230 kts | 132° |
| 2026-04-26 18:37 | 54.02975 | 8.80305 | 9821 ft | 230 kts | 128° |
| 2026-04-26 18:37 | 54.02008 | 8.82456 | 9821 ft | 229 kts | 124° |
| 2026-04-26 18:37 | 54.01061 | 8.84640 | 9822 ft | 230 kts | 124° |
| 2026-04-26 18:38 | 54.00121 | 8.86845 | 9745 ft | 232 kts | 123° |
| 2026-04-26 18:38 | 53.99178 | 8.89103 | 9533 ft | 235 kts | 123° |
| 2026-04-26 18:38 | 53.98235 | 8.91381 | 9360 ft | 236 kts | 123° |
| 2026-04-26 18:38 | 53.97308 | 8.93684 | 9149 ft | 237 kts | 121° |
| 2026-04-26 18:39 | 53.96704 | 8.95276 | 9004 ft | 237 kts | 118° |
| 2026-04-26 18:39 | 53.95959 | 8.97760 | 8785 ft | 236 kts | 112° |
| 2026-04-26 18:39 | 53.95270 | 9.00281 | 8562 ft | 235 kts | 112° |
| 2026-04-26 18:39 | 53.94604 | 9.02810 | 8346 ft | 234 kts | 112° |
| 2026-04-26 18:40 | 53.93947 | 9.05334 | 8134 ft | 234 kts | 112° |
| 2026-04-26 18:40 | 53.93295 | 9.07854 | 7917 ft | 233 kts | 112° |
| 2026-04-26 18:40 | 53.92650 | 9.10366 | 7704 ft | 232 kts | 112° |
| 2026-04-26 18:40 | 53.92009 | 9.12871 | 7494 ft | 231 kts | 112° |
| 2026-04-26 18:41 | 53.91357 | 9.15357 | 7283 ft | 230 kts | 112° |
| 2026-04-26 18:41 | 53.90708 | 9.17833 | 7077 ft | 229 kts | 113° |
| 2026-04-26 18:41 | 53.90067 | 9.20296 | 6872 ft | 228 kts | 113° |
| 2026-04-26 18:41 | 53.89430 | 9.22759 | 6664 ft | 227 kts | 112° |
| 2026-04-26 18:42 | 53.88802 | 9.25212 | 6440 ft | 226 kts | 112° |
| 2026-04-26 18:42 | 53.88181 | 9.27653 | 6224 ft | 225 kts | 112° |
| 2026-04-26 18:42 | 53.87566 | 9.30088 | 6012 ft | 224 kts | 112° |
| 2026-04-26 18:42 | 53.86960 | 9.32512 | 5807 ft | 223 kts | 112° |
| 2026-04-26 18:43 | 53.86364 | 9.34931 | 5596 ft | 222 kts | 112° |
| 2026-04-26 18:43 | 53.85776 | 9.37344 | 5396 ft | 221 kts | 112° |
| 2026-04-26 18:43 | 53.85194 | 9.39747 | 5193 ft | 220 kts | 112° |
| 2026-04-26 18:43 | 53.84683 | 9.42170 | 5052 ft | 215 kts | 94° |
| 2026-04-26 18:44 | 53.85201 | 9.44531 | 4359 ft | 227 kts | 47° |
| 2026-04-26 18:44 | 53.86483 | 9.45920 | 3961 ft | 218 kts | 7° |
| 2026-04-26 18:44 | 53.87848 | 9.45179 | 3488 ft | 212 kts | 313° |
| 2026-04-26 18:44 | 53.88370 | 9.42950 | 3027 ft | 208 kts | 270° |
| 2026-04-26 18:45 | 53.87964 | 9.40642 | 2697 ft | 203 kts | 238° |
| 2026-04-26 18:45 | 53.86850 | 9.39261 | 2468 ft | 203 kts | 198° |
| 2026-04-26 18:45 | 53.85445 | 9.39181 | 2243 ft | 205 kts | 173° |
| 2026-04-26 18:45 | 53.84077 | 9.39856 | 2053 ft | 204 kts | 164° |
| 2026-04-26 18:46 | 53.82738 | 9.40632 | 1866 ft | 203 kts | 163° |
| 2026-04-26 18:46 | 53.81416 | 9.41406 | 1658 ft | 204 kts | 163° |
| 2026-04-26 18:46 | 53.80077 | 9.42190 | 1504 ft | 202 kts | 163° |
| 2026-04-26 18:46 | 53.78768 | 9.42941 | 1504 ft | 197 kts | 163° |
| 2026-04-26 18:47 | 53.77462 | 9.43689 | 1497 ft | 194 kts | 163° |
| 2026-04-26 18:47 | 53.76202 | 9.44418 | 1491 ft | 194 kts | 162° |
| 2026-04-26 18:47 | 53.74914 | 9.45161 | 1492 ft | 197 kts | 163° |
| 2026-04-26 18:47 | 53.73595 | 9.45885 | 1493 ft | 197 kts | 164° |
| 2026-04-26 18:48 | 53.72303 | 9.46596 | 1492 ft | 198 kts | 164° |
| 2026-04-26 18:48 | 53.70989 | 9.47341 | 1497 ft | 200 kts | 163° |
| 2026-04-26 18:48 | 53.69664 | 9.48094 | 1495 ft | 201 kts | 163° |
| 2026-04-26 18:48 | 53.68339 | 9.48840 | 1495 ft | 200 kts | 163° |
| 2026-04-26 18:49 | 53.67008 | 9.49575 | 1498 ft | 198 kts | 163° |
| 2026-04-26 18:49 | 53.65713 | 9.50287 | 1497 ft | 197 kts | 163° |
| 2026-04-26 18:49 | 53.64408 | 9.51107 | 1491 ft | 199 kts | 155° |
| 2026-04-26 18:49 | 53.63269 | 9.52436 | 1488 ft | 200 kts | 139° |
| 2026-04-26 18:50 | 53.62252 | 9.54017 | 1487 ft | 199 kts | 137° |
| 2026-04-26 18:50 | 53.61243 | 9.55603 | 1484 ft | 198 kts | 137° |
| 2026-04-26 18:50 | 53.60270 | 9.57239 | 1482 ft | 198 kts | 131° |
| 2026-04-26 18:50 | 53.59417 | 9.59053 | 1499 ft | 197 kts | 123° |
| 2026-04-26 18:51 | 53.58735 | 9.61050 | 1494 ft | 198 kts | 115° |
| 2026-04-26 18:51 | 53.58157 | 9.63116 | 1484 ft | 198 kts | 114° |
| 2026-04-26 18:51 | 53.57580 | 9.65213 | 1502 ft | 195 kts | 109° |
| 2026-04-26 18:51 | 53.57218 | 9.67418 | 1604 ft | 193 kts | 100° |
| 2026-04-26 18:52 | 53.56978 | 9.69616 | 1627 ft | 192 kts | 96° |
| 2026-04-26 18:52 | 53.56868 | 9.71105 | 1733 ft | 189 kts | 95° |
| 2026-04-26 18:52 | 53.56740 | 9.74061 | 1742 ft | 192 kts | 89° |
| 2026-04-26 18:52 | 53.56695 | 9.76349 | 1721 ft | 194 kts | 90° |
| 2026-04-26 18:53 | 53.56662 | 9.78591 | 1704 ft | 194 kts | 89° |
| 2026-04-26 18:53 | 53.56689 | 9.80855 | 1726 ft | 193 kts | 84° |
| 2026-04-26 18:53 | 53.56821 | 9.83129 | 1731 ft | 193 kts | 80° |
| 2026-04-26 18:53 | 53.57034 | 9.85328 | 1750 ft | 192 kts | 76° |
| 2026-04-26 18:54 | 53.57426 | 9.87421 | 1721 ft | 182 kts | 63° |
| 2026-04-26 18:54 | 53.58081 | 9.89176 | 1579 ft | 179 kts | 49° |
| 2026-04-26 18:54 | 53.58888 | 9.90805 | 1370 ft | 169 kts | 45° |
| 2026-04-26 18:54 | 53.59626 | 9.92164 | 1063 ft | 147 kts | 42° |
| 2026-04-26 18:55 | 53.60304 | 9.93404 | 749 ft | 142 kts | 44° |
| 2026-04-26 18:55 | 53.60901 | 9.94566 | 495 ft | 124 kts | 45° |
| 2026-04-26 18:55 | 53.61461 | 9.95658 | 303 ft | 121 kts | 45° |
| 2026-04-26 18:55 | 53.61989 | 9.96718 | 98 ft | 114 kts | 44° |
| 2026-04-26 18:56 | 53.62463 | 9.97657 | 35 ft | 92 kts | 49° |
| 2026-04-26 18:56 | 53.62718 | 9.98184 | 37 ft | 25 kts | 46° |
| 2026-04-26 18:56 | 53.62716 | 9.98391 | 39 ft | 17 kts | 136° |
| 2026-04-26 18:56 | 53.62686 | 9.98538 | 41 ft | 15 kts | 58° |
| 2026-04-26 18:57 | 53.62748 | 9.98672 | 41 ft | 14 kts | 50° |
| 2026-04-26 18:57 | 53.62787 | 9.98752 | 41 ft | 13 kts | 48° |
| 2026-04-26 18:57 | 53.62724 | 9.98855 | 41 ft | 10 kts | 153° |
| 2026-04-26 18:57 | 53.62663 | 9.98908 | 41 ft | 9 kts | 151° |
| 2026-04-26 18:58 | 53.62630 | 9.98893 | 41 ft | 0 kts | 249° |